sensor_id;sensor_type;location;lat;lon;timestamp;P1;durP1;ratioP1;P2;durP2;ratioP2
30020;SDS011;16861;52.294;7.760;2023-11-22T00:02:05;11.05;;;7.32;;
30020;SDS011;16861;52.294;7.760;2023-11-22T00:04:31;9.00;;;6.53;;
30020;SDS011;16861;52.294;7.760;2023-11-22T00:06:58;10.60;;;7.30;;
30020;SDS011;16861;52.294;7.760;2023-11-22T00:09:25;10.88;;;6.80;;
30020;SDS011;16861;52.294;7.760;2023-11-22T00:11:51;10.20;;;6.80;;
30020;SDS011;16861;52.294;7.760;2023-11-22T00:14:18;8.75;;;6.20;;
30020;SDS011;16861;52.294;7.760;2023-11-22T00:16:45;11.75;;;6.50;;
30020;SDS011;16861;52.294;7.760;2023-11-22T00:19:12;10.05;;;7.03;;
30020;SDS011;16861;52.294;7.760;2023-11-22T00:21:38;10.85;;;7.10;;
30020;SDS011;16861;52.294;7.760;2023-11-22T00:24:05;12.82;;;7.07;;
30020;SDS011;16861;52.294;7.760;2023-11-22T00:26:32;10.77;;;7.22;;
30020;SDS011;16861;52.294;7.760;2023-11-22T00:28:59;10.73;;;6.82;;
30020;SDS011;16861;52.294;7.760;2023-11-22T00:31:25;9.68;;;6.53;;
30020;SDS011;16861;52.294;7.760;2023-11-22T00:33:52;9.55;;;6.82;;
30020;SDS011;16861;52.294;7.760;2023-11-22T00:36:19;10.93;;;7.38;;
30020;SDS011;16861;52.294;7.760;2023-11-22T00:38:58;14.35;;;6.90;;
30020;SDS011;16861;52.294;7.760;2023-11-22T00:41:29;13.30;;;7.47;;
30020;SDS011;16861;52.294;7.760;2023-11-22T00:43:56;10.43;;;6.22;;
30020;SDS011;16861;52.294;7.760;2023-11-22T00:46:23;12.93;;;8.05;;
30020;SDS011;16861;52.294;7.760;2023-11-22T00:48:50;11.20;;;7.93;;
30020;SDS011;16861;52.294;7.760;2023-11-22T00:51:16;15.10;;;8.23;;
30020;SDS011;16861;52.294;7.760;2023-11-22T00:53:43;13.15;;;8.50;;
30020;SDS011;16861;52.294;7.760;2023-11-22T00:56:09;13.38;;;7.93;;
30020;SDS011;16861;52.294;7.760;2023-11-22T00:58:36;11.85;;;8.18;;
30020;SDS011;16861;52.294;7.760;2023-11-22T01:01:03;11.80;;;8.65;;
30020;SDS011;16861;52.294;7.760;2023-11-22T01:03:29;11.55;;;8.05;;
30020;SDS011;16861;52.294;7.760;2023-11-22T01:05:56;11.48;;;7.55;;
30020;SDS011;16861;52.294;7.760;2023-11-22T01:08:23;13.23;;;8.48;;
30020;SDS011;16861;52.294;7.760;2023-11-22T01:10:49;11.02;;;8.15;;
30020;SDS011;16861;52.294;7.760;2023-11-22T01:13:16;12.10;;;7.53;;
30020;SDS011;16861;52.294;7.760;2023-11-22T01:15:42;15.43;;;8.20;;
30020;SDS011;16861;52.294;7.760;2023-11-22T01:18:11;11.93;;;8.32;;
30020;SDS011;16861;52.294;7.760;2023-11-22T01:20:40;13.18;;;8.13;;
30020;SDS011;16861;52.294;7.760;2023-11-22T01:23:06;12.65;;;7.32;;
30020;SDS011;16861;52.294;7.760;2023-11-22T01:25:33;11.93;;;8.13;;
30020;SDS011;16861;52.294;7.760;2023-11-22T01:28:00;12.82;;;8.68;;
30020;SDS011;16861;52.294;7.760;2023-11-22T01:30:27;11.20;;;7.55;;
30020;SDS011;16861;52.294;7.760;2023-11-22T01:32:55;12.23;;;8.35;;
30020;SDS011;16861;52.294;7.760;2023-11-22T01:35:21;11.55;;;8.15;;
30020;SDS011;16861;52.294;7.760;2023-11-22T01:37:48;14.05;;;9.30;;
30020;SDS011;16861;52.294;7.760;2023-11-22T01:40:15;14.43;;;7.93;;
30020;SDS011;16861;52.294;7.760;2023-11-22T01:45:20;14.18;;;8.00;;
30020;SDS011;16861;52.294;7.760;2023-11-22T01:47:47;13.27;;;8.55;;
30020;SDS011;16861;52.294;7.760;2023-11-22T01:50:20;13.23;;;8.65;;
30020;SDS011;16861;52.294;7.760;2023-11-22T01:52:47;13.10;;;8.00;;
30020;SDS011;16861;52.294;7.760;2023-11-22T01:55:13;14.10;;;8.13;;
30020;SDS011;16861;52.294;7.760;2023-11-22T01:57:51;13.15;;;8.45;;
30020;SDS011;16861;52.294;7.760;2023-11-22T02:00:27;14.68;;;8.88;;
30020;SDS011;16861;52.294;7.760;2023-11-22T02:03:01;14.52;;;8.50;;
30020;SDS011;16861;52.294;7.760;2023-11-22T02:05:29;13.32;;;8.40;;
30020;SDS011;16861;52.294;7.760;2023-11-22T02:07:55;13.55;;;8.35;;
30020;SDS011;16861;52.294;7.760;2023-11-22T02:10:36;14.68;;;9.32;;
30020;SDS011;16861;52.294;7.760;2023-11-22T02:13:06;12.55;;;8.77;;
30020;SDS011;16861;52.294;7.760;2023-11-22T02:15:38;14.45;;;9.13;;
30020;SDS011;16861;52.294;7.760;2023-11-22T02:18:08;12.70;;;8.55;;
30020;SDS011;16861;52.294;7.760;2023-11-22T02:20:39;13.80;;;8.73;;
30020;SDS011;16861;52.294;7.760;2023-11-22T02:23:08;14.52;;;9.30;;
30020;SDS011;16861;52.294;7.760;2023-11-22T02:25:35;12.65;;;8.95;;
30020;SDS011;16861;52.294;7.760;2023-11-22T02:28:02;15.05;;;9.23;;
30020;SDS011;16861;52.294;7.760;2023-11-22T02:30:29;14.93;;;9.43;;
30020;SDS011;16861;52.294;7.760;2023-11-22T02:32:55;13.95;;;9.07;;
30020;SDS011;16861;52.294;7.760;2023-11-22T02:35:22;12.20;;;8.95;;
30020;SDS011;16861;52.294;7.760;2023-11-22T02:37:48;16.17;;;9.57;;
30020;SDS011;16861;52.294;7.760;2023-11-22T02:40:19;15.55;;;9.18;;
30020;SDS011;16861;52.294;7.760;2023-11-22T02:42:47;15.05;;;9.60;;
30020;SDS011;16861;52.294;7.760;2023-11-22T02:45:18;16.50;;;9.88;;
30020;SDS011;16861;52.294;7.760;2023-11-22T02:47:58;13.55;;;9.13;;
30020;SDS011;16861;52.294;7.760;2023-11-22T02:50:28;14.57;;;9.68;;
30020;SDS011;16861;52.294;7.760;2023-11-22T02:52:54;16.15;;;9.70;;
30020;SDS011;16861;52.294;7.760;2023-11-22T02:55:21;14.77;;;9.85;;
30020;SDS011;16861;52.294;7.760;2023-11-22T02:57:48;14.90;;;9.10;;
30020;SDS011;16861;52.294;7.760;2023-11-22T03:00:32;17.98;;;9.57;;
30020;SDS011;16861;52.294;7.760;2023-11-22T03:03:01;15.52;;;9.52;;
30020;SDS011;16861;52.294;7.760;2023-11-22T03:05:30;17.02;;;9.80;;
30020;SDS011;16861;52.294;7.760;2023-11-22T03:07:56;16.27;;;10.35;;
30020;SDS011;16861;52.294;7.760;2023-11-22T03:10:24;18.27;;;9.90;;
30020;SDS011;16861;52.294;7.760;2023-11-22T03:12:51;17.05;;;10.60;;
30020;SDS011;16861;52.294;7.760;2023-11-22T03:15:17;16.52;;;10.57;;
30020;SDS011;16861;52.294;7.760;2023-11-22T03:17:47;14.63;;;9.82;;
30020;SDS011;16861;52.294;7.760;2023-11-22T03:20:15;16.30;;;9.93;;
30020;SDS011;16861;52.294;7.760;2023-11-22T03:22:50;16.35;;;10.00;;
30020;SDS011;16861;52.294;7.760;2023-11-22T03:25:26;16.92;;;10.10;;
30020;SDS011;16861;52.294;7.760;2023-11-22T03:27:53;14.13;;;9.00;;
30020;SDS011;16861;52.294;7.760;2023-11-22T03:30:19;15.02;;;9.70;;
30020;SDS011;16861;52.294;7.760;2023-11-22T03:32:46;17.13;;;10.05;;
30020;SDS011;16861;52.294;7.760;2023-11-22T03:35:22;14.13;;;9.48;;
30020;SDS011;16861;52.294;7.760;2023-11-22T03:37:49;16.40;;;10.57;;
30020;SDS011;16861;52.294;7.760;2023-11-22T03:40:15;15.25;;;9.90;;
30020;SDS011;16861;52.294;7.760;2023-11-22T03:42:42;14.15;;;9.73;;
30020;SDS011;16861;52.294;7.760;2023-11-22T03:45:09;17.13;;;10.27;;
30020;SDS011;16861;52.294;7.760;2023-11-22T03:47:35;15.50;;;10.35;;
30020;SDS011;16861;52.294;7.760;2023-11-22T03:50:05;18.10;;;10.02;;
30020;SDS011;16861;52.294;7.760;2023-11-22T03:52:33;16.50;;;9.07;;
30020;SDS011;16861;52.294;7.760;2023-11-22T03:54:59;15.88;;;9.52;;
30020;SDS011;16861;52.294;7.760;2023-11-22T03:57:26;16.20;;;9.68;;
30020;SDS011;16861;52.294;7.760;2023-11-22T03:59:53;15.25;;;9.23;;
30020;SDS011;16861;52.294;7.760;2023-11-22T04:02:19;15.95;;;9.95;;
30020;SDS011;16861;52.294;7.760;2023-11-22T04:04:46;18.15;;;10.77;;
30020;SDS011;16861;52.294;7.760;2023-11-22T04:07:12;16.70;;;9.68;;
30020;SDS011;16861;52.294;7.760;2023-11-22T04:09:39;15.73;;;9.90;;
30020;SDS011;16861;52.294;7.760;2023-11-22T04:12:05;18.35;;;11.07;;
30020;SDS011;16861;52.294;7.760;2023-11-22T04:14:32;16.08;;;10.43;;
30020;SDS011;16861;52.294;7.760;2023-11-22T04:16:59;17.80;;;11.48;;
30020;SDS011;16861;52.294;7.760;2023-11-22T04:19:26;53.25;;;13.82;;
30020;SDS011;16861;52.294;7.760;2023-11-22T04:24:38;58.28;;;11.75;;
30020;SDS011;16861;52.294;7.760;2023-11-22T04:27:05;71.88;;;12.98;;
30020;SDS011;16861;52.294;7.760;2023-11-22T04:29:32;87.68;;;14.10;;
30020;SDS011;16861;52.294;7.760;2023-11-22T04:32:01;36.10;;;11.25;;
30020;SDS011;16861;52.294;7.760;2023-11-22T04:34:28;81.10;;;12.43;;
30020;SDS011;16861;52.294;7.760;2023-11-22T04:36:55;26.92;;;10.63;;
30020;SDS011;16861;52.294;7.760;2023-11-22T04:39:22;23.30;;;10.18;;
30020;SDS011;16861;52.294;7.760;2023-11-22T04:41:49;23.75;;;9.98;;
30020;SDS011;16861;52.294;7.760;2023-11-22T04:44:15;19.23;;;8.80;;
30020;SDS011;16861;52.294;7.760;2023-11-22T04:46:42;29.95;;;9.75;;
30020;SDS011;16861;52.294;7.760;2023-11-22T04:49:09;16.30;;;9.35;;
30020;SDS011;16861;52.294;7.760;2023-11-22T04:51:36;11.98;;;8.13;;
30020;SDS011;16861;52.294;7.760;2023-11-22T04:54:02;15.45;;;8.50;;
30020;SDS011;16861;52.294;7.760;2023-11-22T04:56:29;13.75;;;7.68;;
30020;SDS011;16861;52.294;7.760;2023-11-22T04:58:56;12.45;;;8.27;;
30020;SDS011;16861;52.294;7.760;2023-11-22T05:01:23;11.50;;;7.07;;
30020;SDS011;16861;52.294;7.760;2023-11-22T05:03:54;13.75;;;7.82;;
30020;SDS011;16861;52.294;7.760;2023-11-22T05:06:32;14.32;;;8.30;;
30020;SDS011;16861;52.294;7.760;2023-11-22T05:09:11;13.43;;;8.25;;
30020;SDS011;16861;52.294;7.760;2023-11-22T05:11:39;15.18;;;8.23;;
30020;SDS011;16861;52.294;7.760;2023-11-22T05:14:10;14.65;;;7.75;;
30020;SDS011;16861;52.294;7.760;2023-11-22T05:16:51;11.20;;;7.30;;
30020;SDS011;16861;52.294;7.760;2023-11-22T05:19:17;13.38;;;7.95;;
30020;SDS011;16861;52.294;7.760;2023-11-22T05:21:45;12.70;;;7.43;;
30020;SDS011;16861;52.294;7.760;2023-11-22T05:24:15;9.57;;;7.00;;
30020;SDS011;16861;52.294;7.760;2023-11-22T05:26:44;9.98;;;6.95;;
30020;SDS011;16861;52.294;7.760;2023-11-22T05:29:11;14.15;;;7.18;;
30020;SDS011;16861;52.294;7.760;2023-11-22T05:31:42;12.43;;;7.55;;
30020;SDS011;16861;52.294;7.760;2023-11-22T05:34:08;11.73;;;6.57;;
30020;SDS011;16861;52.294;7.760;2023-11-22T05:36:35;10.60;;;7.03;;
30020;SDS011;16861;52.294;7.760;2023-11-22T05:39:01;14.00;;;7.65;;
30020;SDS011;16861;52.294;7.760;2023-11-22T05:41:30;13.63;;;6.80;;
30020;SDS011;16861;52.294;7.760;2023-11-22T05:43:57;12.05;;;7.28;;
30020;SDS011;16861;52.294;7.760;2023-11-22T05:46:24;12.35;;;6.90;;
30020;SDS011;16861;52.294;7.760;2023-11-22T05:48:51;11.48;;;7.15;;
30020;SDS011;16861;52.294;7.760;2023-11-22T05:51:18;11.38;;;6.35;;
30020;SDS011;16861;52.294;7.760;2023-11-22T05:53:45;11.88;;;6.15;;
30020;SDS011;16861;52.294;7.760;2023-11-22T05:56:12;11.85;;;6.50;;
30020;SDS011;16861;52.294;7.760;2023-11-22T05:58:39;11.05;;;6.43;;
30020;SDS011;16861;52.294;7.760;2023-11-22T06:01:09;10.07;;;6.43;;
30020;SDS011;16861;52.294;7.760;2023-11-22T06:03:47;10.50;;;6.70;;
30020;SDS011;16861;52.294;7.760;2023-11-22T06:06:17;11.50;;;6.80;;
30020;SDS011;16861;52.294;7.760;2023-11-22T06:08:43;9.20;;;6.60;;
30020;SDS011;16861;52.294;7.760;2023-11-22T06:11:10;13.18;;;7.03;;
30020;SDS011;16861;52.294;7.760;2023-11-22T06:13:36;11.43;;;7.03;;
30020;SDS011;16861;52.294;7.760;2023-11-22T06:16:03;10.30;;;6.95;;
30020;SDS011;16861;52.294;7.760;2023-11-22T06:18:30;12.70;;;6.30;;
30020;SDS011;16861;52.294;7.760;2023-11-22T06:20:56;11.48;;;6.53;;
30020;SDS011;16861;52.294;7.760;2023-11-22T06:23:23;9.18;;;6.10;;
30020;SDS011;16861;52.294;7.760;2023-11-22T06:25:50;10.13;;;6.15;;
30020;SDS011;16861;52.294;7.760;2023-11-22T06:28:16;10.93;;;6.57;;
30020;SDS011;16861;52.294;7.760;2023-11-22T06:30:44;10.52;;;5.80;;
30020;SDS011;16861;52.294;7.760;2023-11-22T06:33:10;11.05;;;6.05;;
30020;SDS011;16861;52.294;7.760;2023-11-22T06:35:37;8.98;;;5.82;;
30020;SDS011;16861;52.294;7.760;2023-11-22T06:38:03;12.52;;;6.28;;
30020;SDS011;16861;52.294;7.760;2023-11-22T06:40:30;11.35;;;5.85;;
30020;SDS011;16861;52.294;7.760;2023-11-22T06:42:57;8.75;;;5.63;;
30020;SDS011;16861;52.294;7.760;2023-11-22T06:45:23;10.32;;;5.75;;
30020;SDS011;16861;52.294;7.760;2023-11-22T06:47:50;8.10;;;5.45;;
30020;SDS011;16861;52.294;7.760;2023-11-22T06:50:17;8.73;;;5.75;;
30020;SDS011;16861;52.294;7.760;2023-11-22T06:52:44;8.43;;;5.80;;
30020;SDS011;16861;52.294;7.760;2023-11-22T06:55:13;8.43;;;6.05;;
30020;SDS011;16861;52.294;7.760;2023-11-22T06:57:39;9.73;;;6.75;;
30020;SDS011;16861;52.294;7.760;2023-11-22T07:00:06;7.78;;;5.55;;
30020;SDS011;16861;52.294;7.760;2023-11-22T07:02:35;12.98;;;6.32;;
30020;SDS011;16861;52.294;7.760;2023-11-22T07:05:03;10.77;;;6.07;;
30020;SDS011;16861;52.294;7.760;2023-11-22T07:07:37;10.38;;;6.35;;
30020;SDS011;16861;52.294;7.760;2023-11-22T07:10:04;8.77;;;5.60;;
30020;SDS011;16861;52.294;7.760;2023-11-22T07:12:32;11.05;;;6.20;;
30020;SDS011;16861;52.294;7.760;2023-11-22T07:15:01;10.43;;;6.20;;
30020;SDS011;16861;52.294;7.760;2023-11-22T07:17:29;9.43;;;6.28;;
30020;SDS011;16861;52.294;7.760;2023-11-22T07:19:57;8.85;;;5.90;;
30020;SDS011;16861;52.294;7.760;2023-11-22T07:22:23;9.07;;;5.88;;
30020;SDS011;16861;52.294;7.760;2023-11-22T07:24:50;9.40;;;6.68;;
30020;SDS011;16861;52.294;7.760;2023-11-22T07:27:21;13.43;;;5.82;;
30020;SDS011;16861;52.294;7.760;2023-11-22T07:29:48;14.35;;;6.85;;
30020;SDS011;16861;52.294;7.760;2023-11-22T07:32:18;9.80;;;6.15;;
30020;SDS011;16861;52.294;7.760;2023-11-22T07:34:47;8.80;;;5.90;;
30020;SDS011;16861;52.294;7.760;2023-11-22T07:37:13;12.93;;;6.68;;
30020;SDS011;16861;52.294;7.760;2023-11-22T07:39:41;9.70;;;5.88;;
30020;SDS011;16861;52.294;7.760;2023-11-22T07:42:09;15.73;;;5.80;;
30020;SDS011;16861;52.294;7.760;2023-11-22T07:44:36;12.68;;;6.68;;
30020;SDS011;16861;52.294;7.760;2023-11-22T07:47:04;10.40;;;6.53;;
30020;SDS011;16861;52.294;7.760;2023-11-22T07:49:38;13.93;;;7.53;;
30020;SDS011;16861;52.294;7.760;2023-11-22T07:52:05;13.25;;;7.40;;
30020;SDS011;16861;52.294;7.760;2023-11-22T07:54:33;11.25;;;7.07;;
30020;SDS011;16861;52.294;7.760;2023-11-22T07:57:01;9.68;;;6.53;;
30020;SDS011;16861;52.294;7.760;2023-11-22T07:59:28;10.75;;;6.65;;
30020;SDS011;16861;52.294;7.760;2023-11-22T08:01:55;8.73;;;5.55;;
30020;SDS011;16861;52.294;7.760;2023-11-22T08:04:21;10.30;;;6.18;;
30020;SDS011;16861;52.294;7.760;2023-11-22T08:06:49;9.68;;;6.20;;
30020;SDS011;16861;52.294;7.760;2023-11-22T08:09:16;11.98;;;5.65;;
30020;SDS011;16861;52.294;7.760;2023-11-22T08:11:42;10.82;;;5.55;;
30020;SDS011;16861;52.294;7.760;2023-11-22T08:14:09;8.20;;;5.45;;
30020;SDS011;16861;52.294;7.760;2023-11-22T08:16:36;8.57;;;5.40;;
30020;SDS011;16861;52.294;7.760;2023-11-22T08:19:05;9.57;;;5.50;;
30020;SDS011;16861;52.294;7.760;2023-11-22T08:21:31;9.27;;;5.53;;
30020;SDS011;16861;52.294;7.760;2023-11-22T08:23:59;14.73;;;6.10;;
30020;SDS011;16861;52.294;7.760;2023-11-22T08:26:29;7.78;;;5.03;;
30020;SDS011;16861;52.294;7.760;2023-11-22T08:28:55;9.55;;;4.93;;
30020;SDS011;16861;52.294;7.760;2023-11-22T08:31:22;8.50;;;5.07;;
30020;SDS011;16861;52.294;7.760;2023-11-22T08:33:49;6.93;;;4.70;;
30020;SDS011;16861;52.294;7.760;2023-11-22T08:36:15;8.20;;;4.68;;
30020;SDS011;16861;52.294;7.760;2023-11-22T08:38:42;8.48;;;5.05;;
30020;SDS011;16861;52.294;7.760;2023-11-22T08:41:09;8.98;;;5.07;;
30020;SDS011;16861;52.294;7.760;2023-11-22T08:43:40;7.10;;;4.95;;
30020;SDS011;16861;52.294;7.760;2023-11-22T08:46:07;6.75;;;4.53;;
30020;SDS011;16861;52.294;7.760;2023-11-22T08:48:40;5.65;;;4.38;;
30020;SDS011;16861;52.294;7.760;2023-11-22T08:51:08;6.65;;;4.40;;
30020;SDS011;16861;52.294;7.760;2023-11-22T08:53:36;6.88;;;4.50;;
30020;SDS011;16861;52.294;7.760;2023-11-22T08:56:04;4.88;;;3.83;;
30020;SDS011;16861;52.294;7.760;2023-11-22T08:58:32;7.55;;;4.38;;
30020;SDS011;16861;52.294;7.760;2023-11-22T09:01:00;5.28;;;3.50;;
30020;SDS011;16861;52.294;7.760;2023-11-22T09:03:26;6.45;;;3.58;;
30020;SDS011;16861;52.294;7.760;2023-11-22T09:05:54;7.38;;;3.92;;
30020;SDS011;16861;52.294;7.760;2023-11-22T09:08:21;4.88;;;3.38;;
30020;SDS011;16861;52.294;7.760;2023-11-22T09:10:53;4.93;;;3.22;;
30020;SDS011;16861;52.294;7.760;2023-11-22T09:13:21;7.00;;;3.95;;
30020;SDS011;16861;52.294;7.760;2023-11-22T09:15:49;6.95;;;4.03;;
30020;SDS011;16861;52.294;7.760;2023-11-22T09:18:16;8.70;;;3.97;;
30020;SDS011;16861;52.294;7.760;2023-11-22T09:20:43;9.40;;;4.38;;
30020;SDS011;16861;52.294;7.760;2023-11-22T09:23:12;9.13;;;4.93;;
30020;SDS011;16861;52.294;7.760;2023-11-22T09:25:41;8.30;;;5.20;;
30020;SDS011;16861;52.294;7.760;2023-11-22T09:28:07;8.68;;;4.45;;
30020;SDS011;16861;52.294;7.760;2023-11-22T09:30:35;7.95;;;4.90;;
30020;SDS011;16861;52.294;7.760;2023-11-22T09:33:05;10.55;;;4.88;;
30020;SDS011;16861;52.294;7.760;2023-11-22T09:35:34;10.02;;;4.75;;
30020;SDS011;16861;52.294;7.760;2023-11-22T09:38:02;5.55;;;4.15;;
30020;SDS011;16861;52.294;7.760;2023-11-22T09:40:30;8.23;;;4.78;;
30020;SDS011;16861;52.294;7.760;2023-11-22T09:43:00;7.13;;;4.28;;
30020;SDS011;16861;52.294;7.760;2023-11-22T09:45:29;7.32;;;4.88;;
30020;SDS011;16861;52.294;7.760;2023-11-22T09:47:56;7.13;;;4.43;;
30020;SDS011;16861;52.294;7.760;2023-11-22T09:50:29;8.75;;;4.45;;
30020;SDS011;16861;52.294;7.760;2023-11-22T09:53:14;7.18;;;4.45;;
30020;SDS011;16861;52.294;7.760;2023-11-22T09:56:03;6.93;;;4.30;;
30020;SDS011;16861;52.294;7.760;2023-11-22T09:58:33;8.13;;;3.95;;
30020;SDS011;16861;52.294;7.760;2023-11-22T10:01:00;5.97;;;3.92;;
30020;SDS011;16861;52.294;7.760;2023-11-22T10:03:27;5.80;;;4.07;;
30020;SDS011;16861;52.294;7.760;2023-11-22T10:05:57;7.70;;;4.25;;
30020;SDS011;16861;52.294;7.760;2023-11-22T10:08:30;10.02;;;4.85;;
30020;SDS011;16861;52.294;7.760;2023-11-22T10:10:57;7.82;;;4.53;;
30020;SDS011;16861;52.294;7.760;2023-11-22T10:13:25;5.18;;;3.28;;
30020;SDS011;16861;52.294;7.760;2023-11-22T10:15:53;6.15;;;3.53;;
30020;SDS011;16861;52.294;7.760;2023-11-22T10:18:20;4.78;;;3.15;;
30020;SDS011;16861;52.294;7.760;2023-11-22T10:20:48;5.57;;;3.25;;
30020;SDS011;16861;52.294;7.760;2023-11-22T10:23:19;4.57;;;3.00;;
30020;SDS011;16861;52.294;7.760;2023-11-22T10:25:51;7.20;;;2.80;;
30020;SDS011;16861;52.294;7.760;2023-11-22T10:28:19;5.93;;;3.20;;
30020;SDS011;16861;52.294;7.760;2023-11-22T10:30:47;4.38;;;2.92;;
30020;SDS011;16861;52.294;7.760;2023-11-22T10:33:16;4.68;;;3.35;;
30020;SDS011;16861;52.294;7.760;2023-11-22T10:35:46;6.47;;;3.80;;
30020;SDS011;16861;52.294;7.760;2023-11-22T10:38:18;7.22;;;3.80;;
30020;SDS011;16861;52.294;7.760;2023-11-22T10:40:46;4.28;;;2.97;;
30020;SDS011;16861;52.294;7.760;2023-11-22T10:43:15;6.15;;;3.33;;
30020;SDS011;16861;52.294;7.760;2023-11-22T10:45:43;5.75;;;3.90;;
30020;SDS011;16861;52.294;7.760;2023-11-22T10:48:17;5.35;;;3.55;;
30020;SDS011;16861;52.294;7.760;2023-11-22T10:50:45;5.70;;;3.53;;
30020;SDS011;16861;52.294;7.760;2023-11-22T10:53:15;6.03;;;3.97;;
30020;SDS011;16861;52.294;7.760;2023-11-22T10:55:46;6.43;;;4.22;;
30020;SDS011;16861;52.294;7.760;2023-11-22T10:58:14;6.18;;;4.07;;
30020;SDS011;16861;52.294;7.760;2023-11-22T11:00:42;6.70;;;3.40;;
30020;SDS011;16861;52.294;7.760;2023-11-22T11:03:20;6.55;;;3.85;;
30020;SDS011;16861;52.294;7.760;2023-11-22T11:05:52;5.05;;;3.70;;
30020;SDS011;16861;52.294;7.760;2023-11-22T11:08:26;6.50;;;3.65;;
30020;SDS011;16861;52.294;7.760;2023-11-22T11:10:54;4.90;;;3.47;;
30020;SDS011;16861;52.294;7.760;2023-11-22T11:13:25;5.90;;;3.85;;
30020;SDS011;16861;52.294;7.760;2023-11-22T11:15:52;5.57;;;3.40;;
30020;SDS011;16861;52.294;7.760;2023-11-22T11:18:20;5.50;;;3.30;;
30020;SDS011;16861;52.294;7.760;2023-11-22T11:20:51;6.47;;;4.00;;
30020;SDS011;16861;52.294;7.760;2023-11-22T11:23:19;7.80;;;3.40;;
30020;SDS011;16861;52.294;7.760;2023-11-22T11:25:49;5.38;;;3.42;;
30020;SDS011;16861;52.294;7.760;2023-11-22T11:28:15;4.80;;;3.50;;
30020;SDS011;16861;52.294;7.760;2023-11-22T11:30:44;3.80;;;3.22;;
30020;SDS011;16861;52.294;7.760;2023-11-22T11:33:18;4.90;;;2.90;;
30020;SDS011;16861;52.294;7.760;2023-11-22T11:35:52;4.43;;;3.00;;
30020;SDS011;16861;52.294;7.760;2023-11-22T11:38:26;4.32;;;3.15;;
30020;SDS011;16861;52.294;7.760;2023-11-22T11:40:58;5.18;;;3.33;;
30020;SDS011;16861;52.294;7.760;2023-11-22T11:43:42;5.63;;;3.25;;
30020;SDS011;16861;52.294;7.760;2023-11-22T11:46:12;6.15;;;4.20;;
30020;SDS011;16861;52.294;7.760;2023-11-22T11:48:42;9.43;;;4.22;;
30020;SDS011;16861;52.294;7.760;2023-11-22T11:51:17;7.18;;;3.88;;
30020;SDS011;16861;52.294;7.760;2023-11-22T11:53:44;5.32;;;4.20;;
30020;SDS011;16861;52.294;7.760;2023-11-22T11:56:11;6.38;;;3.67;;
30020;SDS011;16861;52.294;7.760;2023-11-22T11:58:38;4.50;;;3.40;;
30020;SDS011;16861;52.294;7.760;2023-11-22T12:01:07;5.63;;;4.18;;
30020;SDS011;16861;52.294;7.760;2023-11-22T12:03:37;5.20;;;3.33;;
30020;SDS011;16861;52.294;7.760;2023-11-22T12:06:07;4.90;;;3.80;;
30020;SDS011;16861;52.294;7.760;2023-11-22T12:08:34;4.93;;;3.72;;
30020;SDS011;16861;52.294;7.760;2023-11-22T12:11:04;4.13;;;3.50;;
30020;SDS011;16861;52.294;7.760;2023-11-22T12:13:34;3.17;;;2.72;;
30020;SDS011;16861;52.294;7.760;2023-11-22T12:16:04;3.92;;;2.92;;
30020;SDS011;16861;52.294;7.760;2023-11-22T12:18:41;4.90;;;2.80;;
30020;SDS011;16861;52.294;7.760;2023-11-22T12:21:09;3.53;;;2.42;;
30020;SDS011;16861;52.294;7.760;2023-11-22T12:23:40;3.25;;;2.50;;
30020;SDS011;16861;52.294;7.760;2023-11-22T12:26:14;2.92;;;2.55;;
30020;SDS011;16861;52.294;7.760;2023-11-22T12:28:42;3.92;;;2.70;;
30020;SDS011;16861;52.294;7.760;2023-11-22T12:31:26;2.90;;;2.45;;
30020;SDS011;16861;52.294;7.760;2023-11-22T12:33:56;4.22;;;2.50;;
30020;SDS011;16861;52.294;7.760;2023-11-22T12:36:23;4.15;;;2.20;;
30020;SDS011;16861;52.294;7.760;2023-11-22T12:38:49;2.33;;;2.03;;
30020;SDS011;16861;52.294;7.760;2023-11-22T12:41:16;4.40;;;2.80;;
30020;SDS011;16861;52.294;7.760;2023-11-22T12:43:44;4.38;;;2.75;;
30020;SDS011;16861;52.294;7.760;2023-11-22T12:46:28;3.83;;;2.97;;
30020;SDS011;16861;52.294;7.760;2023-11-22T12:49:11;3.22;;;2.42;;
30020;SDS011;16861;52.294;7.760;2023-11-22T12:51:37;3.25;;;2.35;;
30020;SDS011;16861;52.294;7.760;2023-11-22T12:54:04;2.95;;;2.58;;
30020;SDS011;16861;52.294;7.760;2023-11-22T12:56:31;4.18;;;2.70;;
30020;SDS011;16861;52.294;7.760;2023-11-22T12:58:57;3.25;;;2.58;;
30020;SDS011;16861;52.294;7.760;2023-11-22T13:01:25;3.78;;;3.05;;
30020;SDS011;16861;52.294;7.760;2023-11-22T13:03:52;4.57;;;3.10;;
30020;SDS011;16861;52.294;7.760;2023-11-22T13:06:19;4.32;;;2.60;;
30020;SDS011;16861;52.294;7.760;2023-11-22T13:08:46;3.63;;;2.50;;
30020;SDS011;16861;52.294;7.760;2023-11-22T13:11:12;2.97;;;2.58;;
30020;SDS011;16861;52.294;7.760;2023-11-22T13:13:39;4.55;;;2.50;;
30020;SDS011;16861;52.294;7.760;2023-11-22T13:16:06;5.35;;;2.63;;
30020;SDS011;16861;52.294;7.760;2023-11-22T13:18:33;4.10;;;2.65;;
30020;SDS011;16861;52.294;7.760;2023-11-22T13:20:59;3.25;;;2.17;;
30020;SDS011;16861;52.294;7.760;2023-11-22T13:23:27;2.92;;;2.47;;
30020;SDS011;16861;52.294;7.760;2023-11-22T13:25:54;3.38;;;2.40;;
30020;SDS011;16861;52.294;7.760;2023-11-22T13:28:20;3.92;;;2.83;;
30020;SDS011;16861;52.294;7.760;2023-11-22T13:30:47;3.20;;;2.47;;
30020;SDS011;16861;52.294;7.760;2023-11-22T13:33:15;4.00;;;2.83;;
30020;SDS011;16861;52.294;7.760;2023-11-22T13:35:41;4.47;;;3.00;;
30020;SDS011;16861;52.294;7.760;2023-11-22T13:38:10;4.05;;;2.70;;
30020;SDS011;16861;52.294;7.760;2023-11-22T13:40:38;3.10;;;2.60;;
30020;SDS011;16861;52.294;7.760;2023-11-22T13:43:06;4.57;;;3.10;;
30020;SDS011;16861;52.294;7.760;2023-11-22T13:45:35;3.33;;;2.67;;
30020;SDS011;16861;52.294;7.760;2023-11-22T13:48:06;3.53;;;2.67;;
30020;SDS011;16861;52.294;7.760;2023-11-22T13:50:35;3.33;;;2.58;;
30020;SDS011;16861;52.294;7.760;2023-11-22T13:53:02;4.07;;;2.65;;
30020;SDS011;16861;52.294;7.760;2023-11-22T13:55:30;3.95;;;3.05;;
30020;SDS011;16861;52.294;7.760;2023-11-22T13:57:58;4.03;;;2.78;;
30020;SDS011;16861;52.294;7.760;2023-11-22T14:00:27;3.78;;;2.75;;
30020;SDS011;16861;52.294;7.760;2023-11-22T14:03:00;7.03;;;3.15;;
30020;SDS011;16861;52.294;7.760;2023-11-22T14:05:33;4.47;;;3.10;;
30020;SDS011;16861;52.294;7.760;2023-11-22T14:08:02;5.15;;;3.00;;
30020;SDS011;16861;52.294;7.760;2023-11-22T14:10:30;4.47;;;3.13;;
30020;SDS011;16861;52.294;7.760;2023-11-22T14:12:57;5.07;;;3.08;;
30020;SDS011;16861;52.294;7.760;2023-11-22T14:15:28;4.55;;;2.70;;
30020;SDS011;16861;52.294;7.760;2023-11-22T14:17:55;7.30;;;3.20;;
30020;SDS011;16861;52.294;7.760;2023-11-22T14:20:21;5.28;;;3.35;;
30020;SDS011;16861;52.294;7.760;2023-11-22T14:22:48;4.53;;;3.20;;
30020;SDS011;16861;52.294;7.760;2023-11-22T14:25:14;5.68;;;3.42;;
30020;SDS011;16861;52.294;7.760;2023-11-22T14:27:43;5.03;;;3.40;;
30020;SDS011;16861;52.294;7.760;2023-11-22T14:30:11;5.53;;;3.42;;
30020;SDS011;16861;52.294;7.760;2023-11-22T14:32:41;5.47;;;3.80;;
30020;SDS011;16861;52.294;7.760;2023-11-22T14:35:10;5.75;;;3.60;;
30020;SDS011;16861;52.294;7.760;2023-11-22T14:37:39;5.80;;;3.92;;
30020;SDS011;16861;52.294;7.760;2023-11-22T14:40:09;6.13;;;4.13;;
30020;SDS011;16861;52.294;7.760;2023-11-22T14:42:42;6.07;;;3.92;;
30020;SDS011;16861;52.294;7.760;2023-11-22T14:45:15;6.18;;;4.30;;
30020;SDS011;16861;52.294;7.760;2023-11-22T14:47:41;6.68;;;4.55;;
30020;SDS011;16861;52.294;7.760;2023-11-22T14:50:11;5.45;;;3.85;;
30020;SDS011;16861;52.294;7.760;2023-11-22T14:52:40;6.93;;;4.45;;
30020;SDS011;16861;52.294;7.760;2023-11-22T14:55:07;5.65;;;3.97;;